Time;durP1;ratioP1;P1;durP2;ratioP2;P2;SDS_P1;SDS_P2;PMS_P1;PMS_P2;Temp;Humidity;BMP_temperature;BMP_pressure;BME280_temperature;BME280_humidity;BME280_pressure;Samples;Min_cycle;Max_cycle;Signal;HPM_P1;HPM_P2
2023/04/13 00:01:26;;;;;;;;;;;;;;;-142.75;100.00;75930.59;5015197;28;20101;-68
2023/04/13 00:03:52;;;;;;;1.57;0.70;;;;;;;-142.75;100.00;75926.66;5014668;28;19916;-69
2023/04/13 00:06:18;;;;;;;1.77;0.80;;;;;;;-142.75;100.00;75924.69;5014355;28;20030;-69
2023/04/13 00:08:44;;;;;;;4.03;0.80;;;;;;;-142.75;100.00;75920.75;5014637;28;20445;-68
2023/04/13 00:11:10;;;;;;;4.17;0.70;;;;;;;-142.75;100.00;75924.69;5013198;28;20032;-69
2023/04/13 00:13:39;;;;;;;0.73;0.30;;;;;;;-142.75;100.00;75916.81;5014415;28;20385;-69
2023/04/13 00:16:07;;;;;;;2.40;0.50;;;;;;;-142.75;100.00;75920.75;5014352;28;20096;-69
2023/04/13 00:18:33;;;;;;;8.27;0.60;;;;;;;-142.75;100.00;75916.81;5013659;28;20029;-69
2023/04/13 00:20:59;;;;;;;2.33;0.70;;;;;;;-142.75;100.00;75920.75;5014331;28;20022;-69
2023/04/13 00:23:24;;;;;;;1.27;0.60;;;;;;;-142.75;100.00;75910.91;5014279;28;20029;-69
2023/04/13 00:25:50;;;;;;;1.63;0.57;;;;;;;-142.75;100.00;75910.91;4996620;28;20092;-69
2023/04/13 00:28:15;;;;;;;2.23;0.53;;;;;;;-142.75;100.00;75906.97;5014136;28;20041;-69
2023/04/13 00:30:41;;;;;;;1.50;0.70;;;;;;;-142.75;100.00;75906.97;5014131;28;20026;-69
2023/04/13 00:33:06;;;;;;;4.43;0.97;;;;;;;-142.75;100.00;75905.00;5014063;28;20030;-69
2023/04/13 00:35:32;;;;;;;2.90;0.67;;;;;;;-142.75;100.00;75897.13;5013985;28;20030;-68
2023/04/13 00:37:57;;;;;;;1.40;0.80;;;;;;;-142.75;100.00;75893.19;5013930;28;20026;-69
2023/04/13 00:40:23;;;;;;;2.97;0.57;;;;;;;-142.75;100.00;75887.28;5014065;28;20022;-69
2023/04/13 00:42:49;;;;;;;3.20;0.80;;;;;;;-142.75;100.00;75873.50;5012646;28;20030;-69
2023/04/13 00:45:16;;;;;;;3.07;0.90;;;;;;;-142.75;100.00;75877.44;5013836;28;20083;-69
2023/04/13 00:47:47;;;;;;;2.70;0.90;;;;;;;-142.75;100.00;75877.44;5013788;28;20022;-69
2023/04/13 00:50:15;;;;;;;4.83;1.20;;;;;;;-142.75;100.00;75873.50;5013808;28;20030;-69
2023/04/13 00:52:41;;;;;;;3.53;0.97;;;;;;;-142.75;100.00;75853.84;5013730;28;20059;-69
2023/04/13 00:55:07;;;;;;;4.00;1.20;;;;;;;-142.75;100.00;75851.88;5013683;28;20026;-69
2023/04/13 00:57:34;;;;;;;2.23;1.17;;;;;;;-142.75;100.00;75855.81;5013573;28;20036;-69
2023/04/13 01:00:05;;;;;;;3.80;1.47;;;;;;;-142.75;100.00;75849.91;5014117;28;20028;-69
2023/04/13 01:02:31;;;;;;;5.07;1.53;;;;;;;-142.75;100.00;75855.81;5014236;28;20089;-69
2023/04/13 01:04:57;;;;;;;3.83;1.73;;;;;;;-142.75;100.00;75849.91;5013782;28;20062;-69
2023/04/13 01:07:43;;;;;;;3.50;1.47;;;;;;;-142.75;100.00;75861.69;5013449;28;20053;-69
2023/04/13 01:10:19;;;;;;;8.45;1.45;;;;;;;-142.75;100.00;75855.81;5013454;28;20029;-69
2023/04/13 01:13:17;;;;;;;3.55;1.10;;;;;;;-142.75;100.00;75845.97;5013309;28;20030;-69
2023/04/13 01:16:11;;;;;;;2.47;0.87;;;;;;;-142.75;100.00;75857.78;5013270;28;20557;-69
2023/04/13 01:18:40;;;;;;;7.67;1.23;;;;;;;-142.75;100.00;75855.81;5007336;28;20041;-69
2023/04/13 01:21:10;;;;;;;2.17;0.83;;;;;;;-142.75;100.00;75855.81;5013278;28;20030;-69
2023/04/13 01:23:51;;;;;;;4.77;0.93;;;;;;;-142.75;100.00;75857.78;5013101;28;20033;-69
2023/04/13 01:26:16;;;;;;;6.00;1.00;;;;;;;-142.75;100.00;75869.56;5012910;28;20034;-68
2023/04/13 01:28:42;;;;;;;4.63;0.80;;;;;;;-142.75;100.00;75873.50;5012735;28;20501;-69
2023/04/13 01:31:10;;;;;;;0.47;0.30;;;;;;;-142.75;100.00;75883.34;5012747;28;20033;-69
2023/04/13 01:33:39;;;;;;;1.17;0.40;;;;;;;-142.75;100.00;75881.38;5012714;28;20208;-69
2023/04/13 01:36:05;;;;;;;2.50;0.50;;;;;;;-142.75;100.00;75877.44;5012790;28;20036;-69
2023/04/13 01:38:30;;;;;;;1.70;0.40;;;;;;;-142.75;100.00;75899.09;4995136;28;20076;-69
2023/04/13 01:40:56;;;;;;;5.20;0.60;;;;;;;-142.75;100.00;75881.38;4995248;28;20034;-69
2023/04/13 01:43:22;;;;;;;4.63;0.60;;;;;;;-142.75;100.00;75893.19;5012745;28;20030;-69
2023/04/13 01:46:03;;;;;;;1.10;0.53;;;;;;;-142.75;100.00;75897.13;5012696;28;20482;-69
2023/04/13 01:48:42;;;;;;;2.50;0.73;;;;;;;-142.75;100.00;75899.09;5012420;28;20108;-69
2023/04/13 01:51:12;;;;;;;3.67;0.70;;;;;;;-142.75;100.00;75905.00;5011445;28;20114;-69
2023/04/13 01:53:49;;;;;;;1.57;0.60;;;;;;;-142.75;100.00;75905.00;5012629;28;20025;-69
2023/04/13 01:56:18;;;;;;;6.13;0.80;;;;;;;-142.75;100.00;75926.66;5012447;28;20427;-69
2023/04/13 01:58:46;;;;;;;5.87;0.87;;;;;;;-142.75;100.00;75938.47;5012505;28;20104;-69
2023/04/13 02:01:11;;;;;;;4.57;0.90;;;;;;;-142.75;100.00;75944.38;5011336;28;20029;-69
2023/04/13 02:03:37;;;;;;;8.67;0.90;;;;;;;-142.75;100.00;75946.34;5012396;28;20025;-69
2023/04/13 02:06:03;;;;;;;5.57;0.80;;;;;;;-142.75;100.00;75960.13;5012436;28;20026;-69
2023/04/13 02:08:30;;;;;;;4.40;0.87;;;;;;;-142.75;100.00;75967.97;5012278;28;20036;-69
2023/04/13 02:10:56;;;;;;;5.07;1.33;;;;;;;-142.75;100.00;75979.78;5012313;28;20030;-69
2023/04/13 02:13:22;;;;;;;4.23;1.20;;;;;;;-142.75;100.00;75989.63;5012191;28;20088;-69
2023/04/13 02:15:47;;;;;;;6.23;0.90;;;;;;;-142.75;100.00;75977.81;5012138;28;20022;-69
2023/04/13 02:18:13;;;;;;;5.37;1.70;;;;;;;-142.75;100.00;75967.97;5012164;28;20057;-69
2023/04/13 02:20:43;;;;;;;8.10;1.20;;;;;;;-142.75;100.00;75969.94;5012285;28;20496;-69
2023/04/13 02:23:15;;;;;;;3.90;0.90;;;;;;;-142.75;100.00;75962.09;5012153;28;20034;-69
2023/04/13 02:25:42;;;;;;;4.80;1.27;;;;;;;-142.75;100.00;75956.19;5012084;28;20034;-69
2023/04/13 02:28:08;;;;;;;2.90;0.80;;;;;;;-142.75;100.00;75960.13;5011998;28;20033;-69
2023/04/13 02:30:34;;;;;;;6.13;1.43;;;;;;;-142.75;100.00;75954.22;5012058;28;20549;-69
2023/04/13 02:32:59;;;;;;;5.93;0.80;;;;;;;-142.75;100.00;75952.25;5012026;28;20156;-69
2023/04/13 02:35:24;;;;;;;6.00;0.60;;;;;;;-142.75;100.00;75952.25;5012033;28;20498;-69
2023/04/13 02:37:50;;;;;;;4.07;0.70;;;;;;;-142.75;100.00;75960.13;5011848;28;20057;-69
2023/04/13 02:40:15;;;;;;;3.67;0.70;;;;;;;-142.75;100.00;75967.97;5011454;28;20058;-69
2023/04/13 02:42:41;;;;;;;2.43;0.50;;;;;;;-142.75;100.00;75967.97;5011649;28;20033;-69
2023/04/13 02:45:10;;;;;;;6.53;0.90;;;;;;;-142.75;100.00;75973.88;5011879;28;20033;-69
2023/04/13 02:47:36;;;;;;;5.33;0.70;;;;;;;-142.75;100.00;75964.03;5011688;28;20184;-69
2023/04/13 02:50:02;;;;;;;3.20;0.67;;;;;;;-142.75;100.00;75967.97;5010600;28;20549;-69
2023/04/13 02:52:27;;;;;;;5.50;0.63;;;;;;;-142.75;100.00;75987.66;5011840;28;20022;-69
2023/04/13 02:54:53;;;;;;;5.67;0.77;;;;;;;-142.75;100.00;75983.72;5011726;28;20030;-69
2023/04/13 02:57:22;;;;;;;3.23;0.50;;;;;;;-142.75;100.00;75983.72;5011649;28;20029;-69
2023/04/13 02:59:48;;;;;;;3.77;0.73;;;;;;;-142.75;100.00;75991.59;5011846;28;20049;-69
2023/04/13 03:02:13;;;;;;;7.60;0.73;;;;;;;-142.75;100.00;75991.59;5011863;28;20111;-69
2023/04/13 03:04:38;;;;;;;3.37;0.70;;;;;;;-142.75;100.00;75981.75;5011467;28;20105;-69
2023/04/13 03:07:08;;;;;;;5.50;0.80;;;;;;;-142.75;100.00;75991.59;5011640;28;20486;-69
2023/04/13 03:09:35;;;;;;;8.70;0.63;;;;;;;-142.75;100.00;75995.53;5011521;28;20029;-69
2023/04/13 03:12:01;;;;;;;3.57;0.80;;;;;;;-142.75;100.00;75991.59;5011732;28;20500;-69
2023/04/13 03:14:28;;;;;;;3.07;0.73;;;;;;;-142.75;100.00;76001.44;5011521;28;20044;-69
2023/04/13 03:16:57;;;;;;;3.63;0.90;;;;;;;-142.75;100.00;76013.25;5011514;28;20633;-69
2023/04/13 03:19:22;;;;;;;6.93;1.10;;;;;;;-142.75;100.00;76013.25;5011620;28;20083;-69
2023/04/13 03:21:48;;;;;;;5.03;1.20;;;;;;;-142.75;100.00;76019.16;4994046;28;20525;-69
2023/04/13 03:24:14;;;;;;;4.90;0.80;;;;;;;-142.75;100.00;76034.91;5011404;28;20056;-69
2023/04/13 03:26:40;;;;;;;6.43;1.10;;;;;;;-142.75;100.00;76034.91;5011339;28;20053;-69
2023/04/13 03:29:06;;;;;;;3.73;0.80;;;;;;;-142.75;100.00;76062.47;5011574;28;20105;-69
2023/04/13 03:31:32;;;;;;;10.30;1.43;;;;;;;-142.75;100.00;76058.53;5011467;28;20482;-69
2023/04/13 03:33:57;;;;;;;9.53;1.37;;;;;;;-142.75;100.00;76062.47;5011443;28;20401;-69
2023/04/13 03:36:23;;;;;;;5.83;1.00;;;;;;;-142.75;100.00;76062.47;5009947;28;20054;-69
2023/04/13 03:38:49;;;;;;;3.97;0.80;;;;;;;-142.75;100.00;76060.50;5011333;28;20026;-69
2023/04/13 03:41:14;;;;;;;5.43;1.10;;;;;;;-142.75;100.00;76072.31;5011439;28;20072;-69
2023/04/13 03:43:40;;;;;;;7.37;1.50;;;;;;;-142.75;100.00;76078.19;5011325;28;20084;-69
2023/04/13 03:46:06;;;;;;;7.23;1.10;;;;;;;-142.75;100.00;76090.00;5011137;28;20025;-69
2023/04/13 03:48:32;;;;;;;5.83;1.50;;;;;;;-142.75;100.00;76078.19;5013385;28;20375;-68
2023/04/13 03:50:57;;;;;;;7.90;1.70;;;;;;;-142.75;100.00;76101.81;5010168;28;20101;-67
2023/04/13 03:53:22;;;;;;;9.97;1.50;;;;;;;-142.75;100.00;76101.81;5012770;28;20029;-67
2023/04/13 03:55:48;;;;;;;11.30;1.73;;;;;;;-142.75;100.00;76117.56;5014809;28;20026;-68
2023/04/13 03:58:13;;;;;;;8.10;1.57;;;;;;;-142.75;100.00;76107.72;5014617;28;20105;-67
2023/04/13 04:00:39;;;;;;;8.27;1.63;;;;;;;-142.75;100.00;76119.53;5014800;28;20018;-68
2023/04/13 04:03:04;;;;;;;9.77;1.60;;;;;;;-142.75;100.00;76137.25;5014783;28;20032;-68
2023/04/13 04:05:29;;;;;;;6.33;1.37;;;;;;;-142.75;100.00;76133.31;5014596;28;20091;-68
2023/04/13 04:07:55;;;;;;;4.30;1.27;;;;;;;-142.75;100.00;76141.19;5013104;28;20052;-68
2023/04/13 04:10:20;;;;;;;7.33;1.57;;;;;;;-142.75;100.00;76145.13;5014550;28;20069;-68
2023/04/13 04:12:45;;;;;;;8.57;1.47;;;;;;;-142.75;100.00;76151.03;5014448;28;20030;-67
2023/04/13 04:15:11;;;;;;;3.60;1.00;;;;;;;-142.75;100.00;76147.09;5014276;28;20048;-68
2023/04/13 04:17:36;;;;;;;7.17;1.33;;;;;;;-142.75;100.00;76162.84;5014351;28;20032;-68
2023/04/13 04:20:02;;;;;;;4.97;1.50;;;;;;;-142.75;100.00;76168.75;5014519;28;20470;-68
2023/04/13 04:22:33;;;;;;;6.70;1.97;;;;;;;-142.75;100.00;76164.81;4996580;28;20108;-68
2023/04/13 04:24:59;;;;;;;4.50;1.40;;;;;;;-142.75;100.00;76164.81;5014362;28;20105;-68
2023/04/13 04:27:25;;;;;;;9.23;1.20;;;;;;;-142.75;100.00;76160.88;5014166;28;20064;-68
2023/04/13 04:29:51;;;;;;;9.30;1.53;;;;;;;-142.75;100.00;76154.97;5014168;28;20022;-68
2023/04/13 04:32:17;;;;;;;2.93;1.00;;;;;;;-142.75;100.00;76147.09;5012808;28;20026;-66
2023/04/13 04:34:43;;;;;;;2.43;0.80;;;;;;;-142.75;100.00;76160.88;5012737;28;20022;-67
2023/04/13 04:37:12;;;;;;;7.63;1.30;;;;;;;-142.75;100.00;76164.81;5013887;28;20434;-68
2023/04/13 04:39:43;;;;;;;5.40;0.90;;;;;;;-142.75;100.00;76166.78;5012815;28;20041;-68
2023/04/13 04:42:09;;;;;;;3.47;0.63;;;;;;;-142.75;100.00;76172.69;5014088;28;20401;-68
2023/04/13 04:44:36;;;;;;;6.13;0.80;;;;;;;-142.75;100.00;76172.69;5013854;28;20021;-68
2023/04/13 04:47:03;;;;;;;3.50;0.60;;;;;;;-142.75;100.00;76174.66;5013755;28;20563;-69
2023/04/13 04:49:28;;;;;;;3.83;0.73;;;;;;;-142.75;100.00;76178.59;5013756;28;20022;-67
2023/04/13 04:51:54;;;;;;;3.07;1.00;;;;;;;-142.75;100.00;76180.56;4996169;28;20486;-67
2023/04/13 04:54:20;;;;;;;4.70;0.70;;;;;;;-142.75;100.00;76180.56;5012394;28;20564;-66
2023/04/13 04:56:47;;;;;;;3.90;1.07;;;;;;;-142.75;100.00;76170.72;5013615;28;20041;-68
2023/04/13 04:59:12;;;;;;;3.03;0.50;;;;;;;-142.75;100.00;76188.44;5013710;28;20018;-68
2023/04/13 05:01:38;;;;;;;2.50;0.50;;;;;;;-142.75;100.00;76192.38;5013671;28;20505;-67
2023/04/13 05:04:04;;;;;;;1.83;0.60;;;;;;;-142.75;100.00;76188.44;5012857;28;20057;-68
2023/04/13 05:06:33;;;;;;;5.77;1.37;;;;;;;-142.75;100.00;76184.50;5013319;28;20061;-68
2023/04/13 05:08:59;;;;;;;3.77;0.70;;;;;;;-142.75;100.00;76172.69;5012167;28;20494;-67
2023/04/13 05:11:25;;;;;;;3.97;1.07;;;;;;;-142.75;100.00;76184.50;4995844;28;20087;-68
2023/04/13 05:13:51;;;;;;;1.63;0.60;;;;;;;-142.75;100.00;76184.50;5013370;28;20101;-68
2023/04/13 05:16:16;;;;;;;2.73;0.83;;;;;;;-142.75;100.00;76164.81;5013039;28;20036;-68
2023/04/13 05:18:46;;;;;;;7.47;1.60;;;;;;;-142.75;100.00;76168.75;5013196;28;20646;-68
2023/04/13 05:21:13;;;;;;;4.30;0.53;;;;;;;-142.75;100.00;76176.63;5013303;28;20394;-68
2023/04/13 05:23:39;;;;;;;5.47;0.90;;;;;;;-142.75;100.00;76168.75;5013164;28;20026;-68
2023/04/13 05:26:05;;;;;;;3.53;0.50;;;;;;;-142.75;100.00;76158.91;5013193;28;20033;-68
2023/04/13 05:28:32;;;;;;;3.60;1.00;;;;;;;-142.75;100.00;76166.78;5012870;28;20103;-68
2023/04/13 05:31:02;;;;;;;1.30;0.60;;;;;;;-142.75;100.00;76162.84;5012982;28;20021;-68
2023/04/13 05:33:27;;;;;;;2.47;0.60;;;;;;;-142.75;100.00;76176.63;5012424;28;20105;-67
2023/04/13 05:35:52;;;;;;;2.60;0.50;;;;;;;-142.75;100.00;76149.06;5012839;28;20613;-68
2023/04/13 05:38:18;;;;;;;4.20;0.80;;;;;;;-142.75;100.00;76149.06;5011755;28;20444;-68
2023/04/13 05:40:44;;;;;;;3.70;0.73;;;;;;;-142.75;100.00;76141.19;5012875;28;20532;-68
2023/04/13 05:43:10;;;;;;;2.53;0.60;;;;;;;-142.75;100.00;76149.06;5012760;28;20070;-68
2023/04/13 05:45:35;;;;;;;5.17;1.03;;;;;;;-142.75;100.00;76154.97;5012773;28;20116;-68
2023/04/13 05:48:00;;;;;;;4.70;0.87;;;;;;;-142.75;100.00;76147.09;5012516;28;20442;-68
2023/04/13 05:50:27;;;;;;;5.73;1.20;;;;;;;-142.75;100.00;76133.31;5012608;28;20108;-67
2023/04/13 05:52:52;;;;;;;5.03;1.00;;;;;;;-142.75;100.00;76129.38;5012366;28;20022;-68
2023/04/13 05:55:18;;;;;;;4.70;1.30;;;;;;;-142.75;100.00;76135.28;5012448;28;20112;-68
2023/04/13 05:57:44;;;;;;;5.70;1.57;;;;;;;-142.75;100.00;76129.38;5012415;28;20032;-68
2023/04/13 06:00:10;;;;;;;10.13;1.93;;;;;;;-142.75;100.00;76125.44;5012467;28;20413;-68
2023/04/13 06:02:37;;;;;;;7.73;1.47;;;;;;;-142.75;100.00;76119.53;5012346;28;20555;-68
2023/04/13 06:05:03;;;;;;;6.23;1.83;;;;;;;-142.75;100.00;76121.50;5012335;28;20397;-68
2023/04/13 06:07:29;;;;;;;10.23;1.53;;;;;;;-142.75;100.00;76115.59;5012297;28;20056;-68
2023/04/13 06:09:54;;;;;;;12.40;1.60;;;;;;;-142.75;100.00;76109.69;5012315;28;20477;-68
2023/04/13 06:12:19;;;;;;;7.50;1.83;;;;;;;-142.75;100.00;76105.75;5010999;28;20105;-67
2023/04/13 06:14:45;;;;;;;5.70;1.70;;;;;;;-142.75;100.00;76086.06;5011638;28;20127;-68
2023/04/13 06:17:10;;;;;;;6.37;1.33;;;;;;;-142.75;100.00;76070.34;5011424;28;20113;-68
2023/04/13 06:19:36;;;;;;;12.17;2.37;;;;;;;-142.75;100.00;76076.22;5012646;28;20113;-70
2023/04/13 06:22:01;;;;;;;18.27;2.33;;;;;;;-142.75;100.00;76068.38;5012151;28;20068;-69
2023/04/13 06:24:26;;;;;;;13.13;2.40;;;;;;;-142.75;100.00;76078.19;5012074;28;20113;-69
2023/04/13 06:26:53;;;;;;;9.47;1.27;;;;;;;-142.75;100.00;76109.69;5011992;28;20101;-69
2023/04/13 06:29:18;;;;;;;12.13;1.80;;;;;;;-142.75;100.00;76145.13;5012220;28;20053;-66
2023/04/13 06:31:43;;;;;;;4.60;1.30;;;;;;;-142.75;100.00;76145.13;5011994;28;20131;-68
2023/04/13 06:34:09;;;;;;;9.20;1.50;;;;;;;-142.75;100.00;76156.94;5000924;28;20504;-69
2023/04/13 06:36:35;;;;;;;10.90;1.93;;;;;;;-142.75;100.00;76162.84;4992194;28;20034;-69
2023/04/13 06:39:01;;;;;;;12.60;2.07;;;;;;;-142.75;100.00;76154.97;4992140;28;20026;-69
2023/04/13 06:41:26;;;;;;;17.43;2.07;;;;;;;-142.75;100.00;76145.13;4992258;28;20397;-67
2023/04/13 06:43:51;;;;;;;12.43;2.00;;;;;;;-142.75;100.00;76123.47;4980493;28;20042;-67
2023/04/13 06:46:17;;;;;;;13.03;1.90;;;;;;;-142.75;100.00;76121.50;5002178;28;20030;-67
2023/04/13 06:48:42;;;;;;;11.80;2.30;;;;;;;-142.75;100.00;76082.13;5001036;28;20105;-68
2023/04/13 06:51:07;;;;;;;11.27;1.87;;;;;;;-142.75;100.00;76082.13;5012957;28;20038;-68
2023/04/13 06:53:33;;;;;;;10.43;3.03;;;;;;;-142.75;100.00;76099.84;5020303;28;20032;-68
2023/04/13 06:55:58;;;;;;;11.73;2.43;;;;;;;-142.75;100.00;76097.88;4999226;28;20117;-68
2023/04/13 06:58:24;;;;;;;10.80;2.07;;;;;;;-142.75;100.00;76097.88;5009625;28;20034;-68
2023/04/13 07:00:49;;;;;;;8.90;1.87;;;;;;;-142.75;100.00;76111.66;5003772;28;20069;-68
2023/04/13 07:03:14;;;;;;;16.10;2.30;;;;;;;-142.75;100.00;76113.63;5001021;28;20029;-68
2023/04/13 07:05:40;;;;;;;10.60;1.73;;;;;;;-142.75;100.00;76145.13;5001686;28;20052;-68
2023/04/13 07:08:05;;;;;;;10.70;1.97;;;;;;;-142.75;100.00;76160.88;4997400;28;20034;-68
2023/04/13 07:10:31;;;;;;;11.17;2.13;;;;;;;-142.75;100.00;76168.75;5001883;28;20471;-68
2023/04/13 07:12:56;;;;;;;9.50;2.10;;;;;;;-142.75;100.00;76160.88;4998217;28;20056;-68
2023/04/13 07:15:21;;;;;;;10.97;1.90;;;;;;;-142.75;100.00;76160.88;5002837;28;20500;-68
2023/04/13 07:17:48;;;;;;;18.50;2.33;;;;;;;-142.75;100.00;76162.84;5011189;28;20032;-68
2023/04/13 07:20:13;;;;;;;14.30;1.90;;;;;;;-142.75;100.00;76166.78;5011387;28;20416;-68
2023/04/13 07:22:39;;;;;;;8.87;1.90;;;;;;;-142.75;100.00;76164.81;5011588;28;20105;-68
2023/04/13 07:25:05;;;;;;;8.27;1.90;;;;;;;-142.75;100.00;76168.75;5011555;28;20069;-68
2023/04/13 07:27:32;;;;;;;13.80;2.07;;;;;;;-142.75;100.00;76170.72;5012865;28;20018;-68
2023/04/13 07:29:59;;;;;;;10.60;1.87;;;;;;;-142.75;100.00;76182.53;5015266;28;20045;-68
2023/04/13 07:32:26;;;;;;;13.63;1.87;;;;;;;-142.75;100.00;76200.25;5015230;28;20022;-68
2023/04/13 07:34:51;;;;;;;14.77;2.27;;;;;;;-142.75;100.00;76212.03;5015114;28;20017;-68
2023/04/13 07:37:17;;;;;;;11.90;1.63;;;;;;;-142.75;100.00;76212.03;5015077;28;20029;-68
2023/04/13 07:39:42;;;;;;;10.97;1.70;;;;;;;-142.75;100.00;76221.88;5015123;28;20101;-68
2023/04/13 07:42:07;;;;;;;10.60;1.80;;;;;;;-142.75;100.00;76231.72;5015120;28;20405;-68
2023/04/13 07:44:33;;;;;;;9.93;1.73;;;;;;;-142.75;100.00;76225.81;5014826;28;20030;-68
2023/04/13 07:46:58;;;;;;;13.13;1.63;;;;;;;-142.75;100.00;76245.50;5014760;28;20028;-68
2023/04/13 07:49:23;;;;;;;14.32;2.10;;;;;;;-142.75;100.00;76231.72;5014784;28;20536;-68
2023/04/13 07:51:52;;;;;;;12.47;1.70;;;;;;;-142.75;100.00;76239.59;5014908;28;20026;-68
2023/04/13 07:54:17;;;;;;;13.10;2.13;;;;;;;-142.75;100.00;76243.53;5003818;28;20022;-68
2023/04/13 07:56:42;;;;;;;7.83;2.13;;;;;;;-142.75;100.00;76239.59;4977587;28;20033;-68
2023/04/13 07:59:07;;;;;;;15.53;1.57;;;;;;;-142.75;100.00;76212.03;4977754;28;20026;-68
2023/04/13 08:01:33;;;;;;;9.10;1.73;;;;;;;-142.75;100.00;76202.19;4977762;28;20049;-68
2023/04/13 08:03:59;;;;;;;8.73;2.60;;;;;;;-142.75;100.00;76217.94;4995055;28;20033;-68
2023/04/13 08:06:25;;;;;;;8.67;1.93;;;;;;;-142.75;100.00;76221.88;4977275;28;20029;-68
2023/04/13 08:08:51;;;;;;;9.90;1.63;;;;;;;-142.75;100.00;76227.78;4998034;28;20026;-68
2023/04/13 08:11:16;;;;;;;8.05;1.83;;;;;;;-142.75;100.00;76243.53;5005336;28;20029;-68
2023/04/13 08:13:42;;;;;;;9.20;2.17;;;;;;;-142.75;100.00;76241.56;5006213;28;20038;-68
2023/04/13 08:16:08;;;;;;;11.73;1.67;;;;;;;-142.75;100.00;76235.66;4988867;28;20037;-68
2023/04/13 08:18:33;;;;;;;12.38;1.65;;;;;;;-142.75;100.00;76259.28;5000657;28;20046;-68
2023/04/13 08:20:59;;;;;;;10.43;1.98;;;;;;;-142.75;100.00;76251.41;4987655;28;20030;-68
2023/04/13 08:23:24;;;;;;;5.63;1.55;;;;;;;-142.75;100.00;76249.44;5014369;28;20050;-69
2023/04/13 08:25:50;;;;;;;6.95;1.63;;;;;;;-142.75;100.00;76217.94;5013716;28;20493;-68
2023/04/13 08:28:16;;;;;;;9.60;2.08;;;;;;;-142.75;100.00;76190.41;5013701;28;20197;-67
2023/04/13 08:30:41;;;;;;;11.73;2.05;;;;;;;-142.75;100.00;76107.72;4993550;28;20030;-68
2023/04/13 08:33:07;;;;;;;15.32;1.80;;;;;;;-142.75;100.00;76056.56;5013571;28;20064;-68
2023/04/13 08:35:34;;;;;;;10.40;2.30;;;;;;;-142.75;100.00;76060.50;5009053;28;20060;-68
2023/04/13 08:38:01;;;;;;;9.07;1.55;;;;;;;-142.75;100.00;76090.00;4987711;28;20114;-68
2023/04/13 08:40:27;;;;;;;9.25;1.80;;;;;;;-142.75;100.00;76015.22;5003428;28;20456;-68
2023/04/13 08:42:53;;;;;;;9.65;1.52;;;;;;;-142.75;100.00;75987.66;5005224;28;20026;-68
2023/04/13 08:45:19;;;;;;;8.13;1.45;;;;;;;-142.75;100.00;76005.38;5001765;28;20030;-68
2023/04/13 08:47:45;;;;;;;11.77;1.73;;;;;;;-142.75;100.00;76011.28;5004259;28;20056;-68
2023/04/13 08:50:11;;;;;;;6.10;1.40;;;;;;;-142.75;100.00;76066.41;5003406;28;20050;-69
2023/04/13 08:52:38;;;;;;;11.82;1.52;;;;;;;-142.75;100.00;76062.47;5003207;28;20564;-69
2023/04/13 08:55:04;;;;;;;12.60;1.55;;;;;;;-142.75;100.00;76070.34;4996785;28;20483;-69
2023/04/13 08:57:30;;;;;;;6.60;1.27;;;;;;;-142.75;100.00;76097.88;4994048;28;20018;-69
2023/04/13 08:59:57;;;;;;;5.43;1.10;;;;;;;-142.75;100.00;76068.38;5013407;28;20021;-68
2023/04/13 09:02:27;;;;;;;12.18;1.48;;;;;;;-142.75;100.00;76038.84;5013933;28;20485;-70
2023/04/13 09:04:54;;;;;;;10.73;1.83;;;;;;;-142.75;100.00;76050.66;5014074;28;20187;-70
2023/04/13 09:07:27;;;;;;;10.95;1.90;;;;;;;-142.75;100.00;76111.66;5013471;28;20029;-69
2023/04/13 09:09:58;;;;;;;12.70;1.67;;;;;;;-142.75;100.00;76133.31;4996109;28;20375;-69
2023/04/13 09:12:32;;;;;;;5.35;1.15;;;;;;;-142.75;100.00;76149.06;5013182;28;20025;-69
2023/04/13 09:14:57;;;;;;;7.40;1.52;;;;;;;-142.75;100.00;76168.75;5013212;28;20160;-68
2023/04/13 09:17:28;;;;;;;8.70;1.35;;;;;;;-142.75;100.00;76129.38;5013101;28;20496;-68
2023/04/13 09:20:11;;;;;;;5.72;1.10;;;;;;;-142.75;100.00;76137.25;4996460;28;20105;-68
2023/04/13 09:22:36;;;;;;;8.50;1.45;;;;;;;-142.75;100.00;76139.22;4993391;28;20036;-68
2023/04/13 09:25:04;;;;;;;8.15;1.63;;;;;;;-142.75;100.00;76119.53;4998786;28;20421;-68
2023/04/13 09:27:29;;;;;;;8.25;1.10;;;;;;;-142.75;100.00;76129.38;5013086;28;20026;-68
2023/04/13 09:29:55;;;;;;;10.82;1.63;;;;;;;-142.75;100.00;76141.19;5002308;28;20042;-68
2023/04/13 09:32:24;;;;;;;5.88;1.48;;;;;;;-142.75;100.00;76149.06;4976030;28;20054;-68
2023/04/13 09:35:00;;;;;;;10.45;1.30;;;;;;;-142.75;100.00;76125.44;4993268;28;20038;-67
2023/04/13 09:37:29;;;;;;;5.53;0.98;;;;;;;-142.75;100.00;76131.34;4993390;28;20022;-68
2023/04/13 09:39:54;;;;;;;7.57;1.25;;;;;;;-142.75;100.00;76052.63;4979900;28;20022;-68
2023/04/13 09:42:20;;;;;;;4.80;1.15;;;;;;;-142.75;100.00;76064.44;5011875;28;20072;-69
2023/04/13 09:44:56;;;;;;;11.55;1.15;;;;;;;-142.75;100.00;76023.09;5012758;28;20149;-69
2023/04/13 09:47:22;;;;;;;13.82;1.35;;;;;;;-142.75;100.00;76017.19;5012692;28;20022;-69
2023/04/13 09:49:47;;;;;;;10.30;1.33;;;;;;;-142.75;100.00;76030.97;5012468;28;20060;-69
2023/04/13 09:52:22;;;;;;;11.10;1.10;;;;;;;-142.75;100.00;76034.91;5012621;28;20022;-69
2023/04/13 09:54:52;;;;;;;5.18;1.10;;;;;;;-142.75;100.00;76109.69;5005516;28;20037;-66
2023/04/13 09:57:26;;;;;;;9.35;1.35;;;;;;;-142.75;100.00;76121.50;4985088;28;20366;-69
2023/04/13 09:59:53;;;;;;;6.20;1.50;;;;;;;-142.75;100.00;76111.66;5000573;28;20062;-67
2023/04/13 10:02:18;;;;;;;9.48;1.25;;;;;;;-142.75;100.00;76125.44;4993068;28;20022;-66
2023/04/13 10:04:44;;;;;;;8.95;1.60;;;;;;;-142.75;100.00;76160.88;4992813;28;20371;-69
2023/04/13 10:07:10;;;;;;;9.80;1.42;;;;;;;-142.75;100.00;76164.81;4992594;28;20033;-68
2023/04/13 10:09:35;;;;;;;9.15;1.48;;;;;;;-142.75;100.00;76180.56;4992839;28;20537;-68
2023/04/13 10:12:02;;;;;;;9.82;1.45;;;;;;;-142.75;100.00;76137.25;4992510;28;20077;-68
2023/04/13 10:14:34;;;;;;;10.98;0.98;;;;;;;-142.75;100.00;76048.69;4992550;28;20025;-69
2023/04/13 10:17:09;;;;;;;8.48;1.10;;;;;;;-142.75;100.00;76001.44;4975133;28;20026;-69
2023/04/13 10:19:44;;;;;;;8.73;1.50;;;;;;;-142.75;100.00;75995.53;4992582;28;20486;-69
2023/04/13 10:22:10;;;;;;;9.00;1.38;;;;;;;-142.75;100.00;76032.94;4992124;28;20034;-69
2023/04/13 10:24:38;;;;;;;10.10;1.52;;;;;;;-142.75;100.00;76054.59;4997921;28;20025;-71
2023/04/13 10:27:35;;;;;;;5.32;1.25;;;;;;;-142.75;100.00;76111.66;4989018;28;20402;-70
2023/04/13 10:30:12;;;;;;;7.65;1.58;;;;;;;-142.75;100.00;76147.09;4998735;28;20041;-69
2023/04/13 10:32:37;;;;;;;8.63;1.35;;;;;;;-142.75;100.00;76174.66;5030633;28;20064;-70
2023/04/13 10:35:11;;;;;;;8.10;1.95;;;;;;;-142.75;100.00;76174.66;4988201;28;20075;-71
2023/04/13 10:37:38;;;;;;;8.93;1.63;;;;;;;-142.75;100.00;76204.16;5001323;28;20398;-70
2023/04/13 10:40:09;;;;;;;4.85;1.42;;;;;;;-142.75;100.00;76204.16;5003729;28;20498;-69
2023/04/13 10:42:52;;;;;;;10.43;1.20;;;;;;;-142.75;100.00;76223.84;5010561;28;20040;-70
2023/04/13 10:45:26;;;;;;;8.55;1.85;;;;;;;-142.75;100.00;76223.84;4994221;28;20040;-69
2023/04/13 10:47:57;;;;;;;10.57;1.92;;;;;;;-142.75;100.00;76243.53;5011647;28;20490;-69
2023/04/13 10:50:23;;;;;;;11.52;2.38;;;;;;;-142.75;100.00;76253.38;5011682;28;20030;-70
2023/04/13 10:53:06;;;;;;;10.57;1.48;;;;;;;-142.75;100.00;76259.28;5003004;28;20045;-70
2023/04/13 10:55:35;;;;;;;8.88;1.33;;;;;;;-142.75;100.00;76196.31;4997420;28;20030;-71
2023/04/13 10:58:11;;;;;;;8.30;1.30;;;;;;;-142.75;100.00;76194.34;5002317;28;20033;-69
2023/04/13 11:00:38;;;;;;;7.22;1.50;;;;;;;-142.75;100.00;76225.81;5002346;28;20026;-70
2023/04/13 11:03:05;;;;;;;11.50;1.63;;;;;;;-142.75;100.00;76239.59;4995030;28;20045;-70
2023/04/13 11:05:30;;;;;;;8.50;1.20;;;;;;;-142.75;100.00;76235.66;4991656;28;20402;-71
2023/04/13 11:07:56;;;;;;;9.27;1.67;;;;;;;-142.75;100.00;76237.63;5015129;28;20044;-70